sensor_id;sensor_type;location;lat;lon;timestamp;temperature;humidity
435;DHT22;204;48.942;9.256;2022-09-09T00:01:49;14.20;1.00
435;DHT22;204;48.942;9.256;2022-09-09T00:09:49;14.30;1.00
435;DHT22;204;48.942;9.256;2022-09-09T00:15:17;14.50;1.00
435;DHT22;204;48.942;9.256;2022-09-09T00:18:07;14.60;1.00
435;DHT22;204;48.942;9.256;2022-09-09T00:20:42;14.60;1.00
435;DHT22;204;48.942;9.256;2022-09-09T00:23:30;14.70;1.00
435;DHT22;204;48.942;9.256;2022-09-09T00:26:05;14.80;1.00
435;DHT22;204;48.942;9.256;2022-09-09T00:28:38;14.80;1.00
435;DHT22;204;48.942;9.256;2022-09-09T00:31:18;14.90;1.00
435;DHT22;204;48.942;9.256;2022-09-09T00:33:46;15.00;1.00
435;DHT22;204;48.942;9.256;2022-09-09T00:36:16;15.10;1.00
435;DHT22;204;48.942;9.256;2022-09-09T00:38:47;15.10;1.00
435;DHT22;204;48.942;9.256;2022-09-09T00:44:06;15.10;1.00
435;DHT22;204;48.942;9.256;2022-09-09T00:46:44;15.10;1.00
435;DHT22;204;48.942;9.256;2022-09-09T00:49:39;15.10;1.00
435;DHT22;204;48.942;9.256;2022-09-09T00:55:04;15.00;1.00
435;DHT22;204;48.942;9.256;2022-09-09T00:57:33;14.90;1.00
435;DHT22;204;48.942;9.256;2022-09-09T01:08:27;14.80;1.00
435;DHT22;204;48.942;9.256;2022-09-09T01:10:54;14.80;1.00
435;DHT22;204;48.942;9.256;2022-09-09T01:13:34;14.90;1.00
435;DHT22;204;48.942;9.256;2022-09-09T01:16:03;14.90;1.00
435;DHT22;204;48.942;9.256;2022-09-09T01:18:33;14.90;1.00
435;DHT22;204;48.942;9.256;2022-09-09T01:21:25;15.00;1.00
435;DHT22;204;48.942;9.256;2022-09-09T01:26:43;15.00;1.00
435;DHT22;204;48.942;9.256;2022-09-09T01:29:12;15.00;1.00
435;DHT22;204;48.942;9.256;2022-09-09T01:34:13;15.10;1.00
435;DHT22;204;48.942;9.256;2022-09-09T01:39:26;15.20;1.00
435;DHT22;204;48.942;9.256;2022-09-09T01:41:53;15.20;1.00
435;DHT22;204;48.942;9.256;2022-09-09T01:44:20;15.20;1.00
435;DHT22;204;48.942;9.256;2022-09-09T01:46:46;15.30;1.00
435;DHT22;204;48.942;9.256;2022-09-09T01:49:12;15.30;1.00
435;DHT22;204;48.942;9.256;2022-09-09T01:51:39;15.40;1.00
435;DHT22;204;48.942;9.256;2022-09-09T01:54:07;15.40;1.00
435;DHT22;204;48.942;9.256;2022-09-09T02:02:11;15.40;1.00
435;DHT22;204;48.942;9.256;2022-09-09T02:04:43;15.40;1.00
435;DHT22;204;48.942;9.256;2022-09-09T02:09:57;15.40;1.00
435;DHT22;204;48.942;9.256;2022-09-09T02:12:26;15.40;1.00
435;DHT22;204;48.942;9.256;2022-09-09T02:14:57;15.50;1.00
435;DHT22;204;48.942;9.256;2022-09-09T02:17:34;15.50;1.00
435;DHT22;204;48.942;9.256;2022-09-09T02:20:07;15.50;1.00
435;DHT22;204;48.942;9.256;2022-09-09T02:22:35;15.40;1.00
435;DHT22;204;48.942;9.256;2022-09-09T02:25:06;15.40;1.00
435;DHT22;204;48.942;9.256;2022-09-09T02:27:33;15.30;1.00
435;DHT22;204;48.942;9.256;2022-09-09T02:30:00;15.30;1.00
435;DHT22;204;48.942;9.256;2022-09-09T02:32:29;15.30;1.00
435;DHT22;204;48.942;9.256;2022-09-09T02:35:04;15.30;1.00
435;DHT22;204;48.942;9.256;2022-09-09T02:37:35;15.20;1.00
435;DHT22;204;48.942;9.256;2022-09-09T02:40:03;15.10;1.00
435;DHT22;204;48.942;9.256;2022-09-09T02:42:29;15.00;1.00
435;DHT22;204;48.942;9.256;2022-09-09T02:44:55;14.90;1.00
435;DHT22;204;48.942;9.256;2022-09-09T02:50:01;14.80;1.00
435;DHT22;204;48.942;9.256;2022-09-09T02:52:38;14.70;1.00
435;DHT22;204;48.942;9.256;2022-09-09T02:55:16;14.60;1.00
435;DHT22;204;48.942;9.256;2022-09-09T02:57:45;14.50;1.00
435;DHT22;204;48.942;9.256;2022-09-09T03:00:13;14.50;1.00
435;DHT22;204;48.942;9.256;2022-09-09T03:02:39;14.40;1.00
435;DHT22;204;48.942;9.256;2022-09-09T03:05:05;14.40;1.00
435;DHT22;204;48.942;9.256;2022-09-09T03:07:31;14.30;1.00
435;DHT22;204;48.942;9.256;2022-09-09T03:09:57;14.30;1.00
435;DHT22;204;48.942;9.256;2022-09-09T03:12:23;14.30;1.00
435;DHT22;204;48.942;9.256;2022-09-09T03:14:49;14.30;1.00
435;DHT22;204;48.942;9.256;2022-09-09T03:17:15;14.30;1.00
435;DHT22;204;48.942;9.256;2022-09-09T03:19:40;14.30;1.00
435;DHT22;204;48.942;9.256;2022-09-09T03:22:07;14.30;1.00
435;DHT22;204;48.942;9.256;2022-09-09T03:24:33;14.30;1.00
435;DHT22;204;48.942;9.256;2022-09-09T03:26:59;14.30;1.00
435;DHT22;204;48.942;9.256;2022-09-09T03:29:24;14.30;1.00
435;DHT22;204;48.942;9.256;2022-09-09T03:31:50;14.30;1.00
435;DHT22;204;48.942;9.256;2022-09-09T03:34:15;14.30;1.00
435;DHT22;204;48.942;9.256;2022-09-09T03:36:41;14.20;1.00
435;DHT22;204;48.942;9.256;2022-09-09T03:39:06;14.20;1.00
435;DHT22;204;48.942;9.256;2022-09-09T03:41:32;14.20;1.00
435;DHT22;204;48.942;9.256;2022-09-09T03:43:59;14.20;1.00
435;DHT22;204;48.942;9.256;2022-09-09T03:46:25;14.20;1.00
435;DHT22;204;48.942;9.256;2022-09-09T03:48:52;14.20;1.00
435;DHT22;204;48.942;9.256;2022-09-09T03:51:18;14.10;1.00
435;DHT22;204;48.942;9.256;2022-09-09T03:53:44;14.10;1.00
435;DHT22;204;48.942;9.256;2022-09-09T03:56:09;14.10;1.00
435;DHT22;204;48.942;9.256;2022-09-09T03:58:36;14.10;1.00
435;DHT22;204;48.942;9.256;2022-09-09T04:01:04;14.10;1.00
435;DHT22;204;48.942;9.256;2022-09-09T04:03:30;14.20;1.00
435;DHT22;204;48.942;9.256;2022-09-09T04:05:58;14.20;1.00
435;DHT22;204;48.942;9.256;2022-09-09T04:08:25;14.30;1.00
435;DHT22;204;48.942;9.256;2022-09-09T04:10:51;14.30;1.00
435;DHT22;204;48.942;9.256;2022-09-09T04:13:18;14.30;1.00
435;DHT22;204;48.942;9.256;2022-09-09T04:15:59;14.30;1.00
435;DHT22;204;48.942;9.256;2022-09-09T04:18:26;14.40;1.00
435;DHT22;204;48.942;9.256;2022-09-09T04:20:53;14.40;1.00
435;DHT22;204;48.942;9.256;2022-09-09T04:23:21;14.40;1.00
435;DHT22;204;48.942;9.256;2022-09-09T04:25:48;14.40;1.00
435;DHT22;204;48.942;9.256;2022-09-09T04:28:15;14.40;1.00
435;DHT22;204;48.942;9.256;2022-09-09T04:30:42;14.40;1.00
435;DHT22;204;48.942;9.256;2022-09-09T04:33:08;14.40;1.00
435;DHT22;204;48.942;9.256;2022-09-09T04:35:35;14.40;1.00
435;DHT22;204;48.942;9.256;2022-09-09T04:38:01;14.50;1.00
435;DHT22;204;48.942;9.256;2022-09-09T04:40:28;14.50;1.00
435;DHT22;204;48.942;9.256;2022-09-09T04:42:57;14.50;1.00
435;DHT22;204;48.942;9.256;2022-09-09T04:45:22;14.60;1.00
435;DHT22;204;48.942;9.256;2022-09-09T04:47:48;14.60;1.00
435;DHT22;204;48.942;9.256;2022-09-09T04:50:14;14.70;1.00
435;DHT22;204;48.942;9.256;2022-09-09T04:52:41;14.80;1.00
435;DHT22;204;48.942;9.256;2022-09-09T04:55:07;14.90;1.00
435;DHT22;204;48.942;9.256;2022-09-09T04:57:34;14.90;1.00
435;DHT22;204;48.942;9.256;2022-09-09T04:59:59;15.00;1.00
435;DHT22;204;48.942;9.256;2022-09-09T05:02:26;15.10;1.00
435;DHT22;204;48.942;9.256;2022-09-09T05:04:51;15.10;1.00
435;DHT22;204;48.942;9.256;2022-09-09T05:07:17;15.20;1.00
435;DHT22;204;48.942;9.256;2022-09-09T05:09:43;15.20;1.00
435;DHT22;204;48.942;9.256;2022-09-09T05:12:08;15.20;1.00
435;DHT22;204;48.942;9.256;2022-09-09T05:14:34;15.20;1.00
435;DHT22;204;48.942;9.256;2022-09-09T05:17:02;15.20;1.00
435;DHT22;204;48.942;9.256;2022-09-09T05:19:28;15.20;1.00
435;DHT22;204;48.942;9.256;2022-09-09T05:21:54;15.20;1.00
435;DHT22;204;48.942;9.256;2022-09-09T05:24:19;15.30;1.00
435;DHT22;204;48.942;9.256;2022-09-09T05:26:45;15.40;1.00
435;DHT22;204;48.942;9.256;2022-09-09T05:29:11;15.50;1.00
435;DHT22;204;48.942;9.256;2022-09-09T05:31:36;15.50;1.00
435;DHT22;204;48.942;9.256;2022-09-09T05:34:02;15.60;1.00
435;DHT22;204;48.942;9.256;2022-09-09T05:36:28;15.70;1.00
435;DHT22;204;48.942;9.256;2022-09-09T05:38:53;15.70;1.00
435;DHT22;204;48.942;9.256;2022-09-09T05:41:19;15.80;1.00
435;DHT22;204;48.942;9.256;2022-09-09T05:43:45;16.00;1.00
435;DHT22;204;48.942;9.256;2022-09-09T05:46:15;16.10;1.00
435;DHT22;204;48.942;9.256;2022-09-09T05:48:42;16.30;1.00
435;DHT22;204;48.942;9.256;2022-09-09T05:51:12;16.50;1.00
435;DHT22;204;48.942;9.256;2022-09-09T05:53:41;16.60;1.00
435;DHT22;204;48.942;9.256;2022-09-09T05:56:11;16.70;1.00
435;DHT22;204;48.942;9.256;2022-09-09T05:58:38;16.90;1.00
435;DHT22;204;48.942;9.256;2022-09-09T06:01:11;17.00;1.00
435;DHT22;204;48.942;9.256;2022-09-09T06:03:39;17.10;1.00
435;DHT22;204;48.942;9.256;2022-09-09T06:06:10;17.20;1.00
435;DHT22;204;48.942;9.256;2022-09-09T06:08:38;17.30;1.00
435;DHT22;204;48.942;9.256;2022-09-09T06:11:06;17.40;1.00
435;DHT22;204;48.942;9.256;2022-09-09T06:13:32;17.50;1.00
435;DHT22;204;48.942;9.256;2022-09-09T06:15:58;17.70;1.00
435;DHT22;204;48.942;9.256;2022-09-09T06:18:24;17.90;1.00
435;DHT22;204;48.942;9.256;2022-09-09T06:20:58;18.00;1.00
435;DHT22;204;48.942;9.256;2022-09-09T06:23:25;18.20;1.00
435;DHT22;204;48.942;9.256;2022-09-09T06:25:51;18.30;1.00
435;DHT22;204;48.942;9.256;2022-09-09T06:28:17;18.40;1.00
435;DHT22;204;48.942;9.256;2022-09-09T06:30:43;18.40;1.00
435;DHT22;204;48.942;9.256;2022-09-09T06:33:10;18.40;1.00
435;DHT22;204;48.942;9.256;2022-09-09T06:35:35;18.30;1.00
435;DHT22;204;48.942;9.256;2022-09-09T06:38:01;18.40;1.00
435;DHT22;204;48.942;9.256;2022-09-09T06:40:26;18.40;1.00
435;DHT22;204;48.942;9.256;2022-09-09T06:42:52;18.60;1.00
435;DHT22;204;48.942;9.256;2022-09-09T06:45:18;18.80;1.00
435;DHT22;204;48.942;9.256;2022-09-09T06:47:44;18.90;1.00
435;DHT22;204;48.942;9.256;2022-09-09T06:50:09;19.10;1.00
435;DHT22;204;48.942;9.256;2022-09-09T06:52:36;19.20;1.00
435;DHT22;204;48.942;9.256;2022-09-09T06:55:02;19.40;1.00
435;DHT22;204;48.942;9.256;2022-09-09T06:57:28;19.50;1.00
435;DHT22;204;48.942;9.256;2022-09-09T06:59:53;19.60;1.00
435;DHT22;204;48.942;9.256;2022-09-09T07:02:19;19.70;1.00
435;DHT22;204;48.942;9.256;2022-09-09T07:04:45;19.70;1.00
435;DHT22;204;48.942;9.256;2022-09-09T07:07:10;19.90;1.00
435;DHT22;204;48.942;9.256;2022-09-09T07:09:39;20.00;1.00
435;DHT22;204;48.942;9.256;2022-09-09T07:12:05;20.20;1.00
435;DHT22;204;48.942;9.256;2022-09-09T07:14:31;20.40;1.00
435;DHT22;204;48.942;9.256;2022-09-09T07:16:58;20.60;1.00
435;DHT22;204;48.942;9.256;2022-09-09T07:19:23;20.80;1.00
435;DHT22;204;48.942;9.256;2022-09-09T07:21:49;20.90;1.00
435;DHT22;204;48.942;9.256;2022-09-09T07:24:15;21.00;1.00
435;DHT22;204;48.942;9.256;2022-09-09T07:26:41;21.10;1.00
435;DHT22;204;48.942;9.256;2022-09-09T07:29:07;21.10;1.00
435;DHT22;204;48.942;9.256;2022-09-09T07:31:36;21.20;1.00
435;DHT22;204;48.942;9.256;2022-09-09T07:34:03;21.30;1.00
435;DHT22;204;48.942;9.256;2022-09-09T07:36:34;21.40;1.00
435;DHT22;204;48.942;9.256;2022-09-09T07:39:03;21.40;1.00
435;DHT22;204;48.942;9.256;2022-09-09T07:41:33;21.40;1.00
435;DHT22;204;48.942;9.256;2022-09-09T07:44:03;21.40;1.00
435;DHT22;204;48.942;9.256;2022-09-09T07:46:29;21.40;1.00
435;DHT22;204;48.942;9.256;2022-09-09T07:48:56;21.50;1.00
435;DHT22;204;48.942;9.256;2022-09-09T07:51:24;21.50;1.00
435;DHT22;204;48.942;9.256;2022-09-09T07:53:59;21.50;1.00
435;DHT22;204;48.942;9.256;2022-09-09T07:56:26;21.40;1.00
435;DHT22;204;48.942;9.256;2022-09-09T07:58:53;21.40;1.00
435;DHT22;204;48.942;9.256;2022-09-09T08:04:01;21.30;1.00
435;DHT22;204;48.942;9.256;2022-09-09T08:06:29;21.20;1.00
435;DHT22;204;48.942;9.256;2022-09-09T08:08:55;21.10;1.00
435;DHT22;204;48.942;9.256;2022-09-09T08:11:23;21.20;1.00
435;DHT22;204;48.942;9.256;2022-09-09T08:13:50;21.30;1.00
435;DHT22;204;48.942;9.256;2022-09-09T08:16:25;21.60;1.00
435;DHT22;204;48.942;9.256;2022-09-09T08:18:51;21.80;1.00
435;DHT22;204;48.942;9.256;2022-09-09T08:21:20;22.10;1.00
435;DHT22;204;48.942;9.256;2022-09-09T08:23:47;22.20;1.00
435;DHT22;204;48.942;9.256;2022-09-09T08:26:15;22.30;1.00
435;DHT22;204;48.942;9.256;2022-09-09T08:28:42;22.30;1.00
435;DHT22;204;48.942;9.256;2022-09-09T08:31:10;22.30;1.00
435;DHT22;204;48.942;9.256;2022-09-09T08:33:36;22.30;1.00
435;DHT22;204;48.942;9.256;2022-09-09T08:36:04;22.40;1.00
435;DHT22;204;48.942;9.256;2022-09-09T08:38:29;22.50;1.00
435;DHT22;204;48.942;9.256;2022-09-09T08:41:04;22.60;1.00
435;DHT22;204;48.942;9.256;2022-09-09T08:43:33;22.80;1.00
435;DHT22;204;48.942;9.256;2022-09-09T08:51:19;24.00;1.00
435;DHT22;204;48.942;9.256;2022-09-09T08:53:49;24.20;1.00
435;DHT22;204;48.942;9.256;2022-09-09T08:56:25;24.30;1.00
435;DHT22;204;48.942;9.256;2022-09-09T08:58:53;24.40;1.00
435;DHT22;204;48.942;9.256;2022-09-09T09:12:00;24.30;1.00
435;DHT22;204;48.942;9.256;2022-09-09T09:14:29;24.30;1.00
435;DHT22;204;48.942;9.256;2022-09-09T09:19:29;24.70;1.00
435;DHT22;204;48.942;9.256;2022-09-09T09:24:54;24.80;1.00
435;DHT22;204;48.942;9.256;2022-09-09T09:28:33;24.80;1.00
435;DHT22;204;48.942;9.256;2022-09-09T09:30:44;24.90;1.00
435;DHT22;204;48.942;9.256;2022-09-09T09:33:32;25.00;1.00
435;DHT22;204;48.942;9.256;2022-09-09T09:35:59;25.10;1.00
435;DHT22;204;48.942;9.256;2022-09-09T09:38:27;25.10;1.00
435;DHT22;204;48.942;9.256;2022-09-09T09:40:55;25.10;1.00
435;DHT22;204;48.942;9.256;2022-09-09T09:43:29;25.00;1.00
435;DHT22;204;48.942;9.256;2022-09-09T09:45:55;24.90;1.00
435;DHT22;204;48.942;9.256;2022-09-09T09:48:20;24.80;1.00
435;DHT22;204;48.942;9.256;2022-09-09T09:50:57;24.80;1.00
435;DHT22;204;48.942;9.256;2022-09-09T09:53:32;24.90;1.00
435;DHT22;204;48.942;9.256;2022-09-09T09:56:03;25.10;1.00
435;DHT22;204;48.942;9.256;2022-09-09T09:58:31;25.20;99.90
435;DHT22;204;48.942;9.256;2022-09-09T10:01:00;25.20;99.90
435;DHT22;204;48.942;9.256;2022-09-09T10:03:27;25.40;99.90
435;DHT22;204;48.942;9.256;2022-09-09T10:05:53;25.40;99.90
435;DHT22;204;48.942;9.256;2022-09-09T10:08:20;25.40;99.90
435;DHT22;204;48.942;9.256;2022-09-09T10:19:00;26.00;99.90
435;DHT22;204;48.942;9.256;2022-09-09T10:24:41;26.40;99.90
435;DHT22;204;48.942;9.256;2022-09-09T10:33:38;26.90;99.90
435;DHT22;204;48.942;9.256;2022-09-09T10:36:21;27.10;99.90
435;DHT22;204;48.942;9.256;2022-09-09T10:39:03;26.90;99.90
435;DHT22;204;48.942;9.256;2022-09-09T10:42:12;26.50;99.90
435;DHT22;204;48.942;9.256;2022-09-09T10:48:02;25.90;99.90
435;DHT22;204;48.942;9.256;2022-09-09T10:50:35;25.40;99.90
435;DHT22;204;48.942;9.256;2022-09-09T10:53:30;25.20;99.90
435;DHT22;204;48.942;9.256;2022-09-09T10:56:06;25.20;99.90
435;DHT22;204;48.942;9.256;2022-09-09T10:58:38;25.20;99.90
435;DHT22;204;48.942;9.256;2022-09-09T11:01:24;25.20;99.90
435;DHT22;204;48.942;9.256;2022-09-09T11:04:16;25.30;99.90
435;DHT22;204;48.942;9.256;2022-09-09T11:06:45;25.50;99.90
435;DHT22;204;48.942;9.256;2022-09-09T11:09:33;25.50;99.90
435;DHT22;204;48.942;9.256;2022-09-09T11:12:02;25.50;99.90
435;DHT22;204;48.942;9.256;2022-09-09T11:14:39;25.20;99.90
435;DHT22;204;48.942;9.256;2022-09-09T11:17:12;24.90;99.90
435;DHT22;204;48.942;9.256;2022-09-09T11:19:43;24.40;99.90
435;DHT22;204;48.942;9.256;2022-09-09T11:27:55;23.20;1.00
435;DHT22;204;48.942;9.256;2022-09-09T11:38:53;22.00;1.00
435;DHT22;204;48.942;9.256;2022-09-09T11:41:22;21.90;1.00
435;DHT22;204;48.942;9.256;2022-09-09T11:43:51;21.80;1.00
435;DHT22;204;48.942;9.256;2022-09-09T11:46:20;21.70;1.00
435;DHT22;204;48.942;9.256;2022-09-09T11:49:01;21.80;1.00
435;DHT22;204;48.942;9.256;2022-09-09T11:51:29;21.90;1.00
435;DHT22;204;48.942;9.256;2022-09-09T11:53:56;22.10;1.00
435;DHT22;204;48.942;9.256;2022-09-09T12:02:32;22.80;1.00
435;DHT22;204;48.942;9.256;2022-09-09T12:05:06;23.00;1.00
435;DHT22;204;48.942;9.256;2022-09-09T12:07:39;23.20;1.00
435;DHT22;204;48.942;9.256;2022-09-09T12:12:38;23.60;1.00
435;DHT22;204;48.942;9.256;2022-09-09T12:15:19;23.90;99.90
435;DHT22;204;48.942;9.256;2022-09-09T12:17:48;24.10;99.90
435;DHT22;204;48.942;9.256;2022-09-09T12:20:33;24.30;1.00
435;DHT22;204;48.942;9.256;2022-09-09T12:23:32;24.40;99.90
435;DHT22;204;48.942;9.256;2022-09-09T12:32:14;25.50;99.90
435;DHT22;204;48.942;9.256;2022-09-09T12:34:47;25.50;99.90
435;DHT22;204;48.942;9.256;2022-09-09T12:37:34;25.70;99.90
435;DHT22;204;48.942;9.256;2022-09-09T12:40:05;26.00;99.90
435;DHT22;204;48.942;9.256;2022-09-09T12:42:32;26.30;99.90
435;DHT22;204;48.942;9.256;2022-09-09T12:45:03;26.50;99.90
435;DHT22;204;48.942;9.256;2022-09-09T12:50:30;26.50;99.90
435;DHT22;204;48.942;9.256;2022-09-09T12:52:59;26.20;99.90
435;DHT22;204;48.942;9.256;2022-09-09T12:55:31;26.00;99.90
435;DHT22;204;48.942;9.256;2022-09-09T12:58:00;25.90;99.90
435;DHT22;204;48.942;9.256;2022-09-09T13:00:26;25.60;99.90
435;DHT22;204;48.942;9.256;2022-09-09T13:02:58;25.50;99.90
435;DHT22;204;48.942;9.256;2022-09-09T13:08:04;25.10;99.90
435;DHT22;204;48.942;9.256;2022-09-09T13:10:35;25.00;99.90
435;DHT22;204;48.942;9.256;2022-09-09T13:13:04;25.00;99.90
435;DHT22;204;48.942;9.256;2022-09-09T13:15:30;24.90;99.90
435;DHT22;204;48.942;9.256;2022-09-09T13:17:59;25.00;99.90
435;DHT22;204;48.942;9.256;2022-09-09T13:20:26;24.90;99.90
435;DHT22;204;48.942;9.256;2022-09-09T13:22:54;25.00;99.90
435;DHT22;204;48.942;9.256;2022-09-09T13:25:26;25.00;99.90
435;DHT22;204;48.942;9.256;2022-09-09T13:28:00;25.20;99.90
435;DHT22;204;48.942;9.256;2022-09-09T13:30:30;25.30;99.90
435;DHT22;204;48.942;9.256;2022-09-09T13:35:35;25.40;99.90
435;DHT22;204;48.942;9.256;2022-09-09T13:38:10;25.40;99.90
435;DHT22;204;48.942;9.256;2022-09-09T13:40:35;25.50;99.90
435;DHT22;204;48.942;9.256;2022-09-09T13:43:02;25.50;99.90
435;DHT22;204;48.942;9.256;2022-09-09T13:45:28;25.50;99.90
435;DHT22;204;48.942;9.256;2022-09-09T13:47:55;25.50;99.90
435;DHT22;204;48.942;9.256;2022-09-09T13:50:27;25.70;99.90
435;DHT22;204;48.942;9.256;2022-09-09T13:52:55;25.70;99.90
435;DHT22;204;48.942;9.256;2022-09-09T13:55:24;25.70;99.90
435;DHT22;204;48.942;9.256;2022-09-09T14:00:24;25.70;99.90
435;DHT22;204;48.942;9.256;2022-09-09T14:02:50;25.60;99.90
435;DHT22;204;48.942;9.256;2022-09-09T14:05:17;25.50;99.90
435;DHT22;204;48.942;9.256;2022-09-09T14:07:43;25.40;99.90
435;DHT22;204;48.942;9.256;2022-09-09T14:10:10;25.50;99.90
435;DHT22;204;48.942;9.256;2022-09-09T14:12:35;25.60;99.90
435;DHT22;204;48.942;9.256;2022-09-09T14:15:02;25.70;99.90
435;DHT22;204;48.942;9.256;2022-09-09T14:17:28;25.90;99.90
435;DHT22;204;48.942;9.256;2022-09-09T14:19:55;25.90;99.90
435;DHT22;204;48.942;9.256;2022-09-09T14:22:21;25.80;99.90
435;DHT22;204;48.942;9.256;2022-09-09T14:24:47;25.80;99.90
435;DHT22;204;48.942;9.256;2022-09-09T14:27:13;25.80;99.90
435;DHT22;204;48.942;9.256;2022-09-09T14:29:38;25.70;99.90
435;DHT22;204;48.942;9.256;2022-09-09T14:32:04;25.50;99.90
435;DHT22;204;48.942;9.256;2022-09-09T14:34:30;25.30;99.90
435;DHT22;204;48.942;9.256;2022-09-09T14:36:57;25.20;99.90
435;DHT22;204;48.942;9.256;2022-09-09T14:39:23;25.20;99.90
435;DHT22;204;48.942;9.256;2022-09-09T14:41:49;25.10;99.90
435;DHT22;204;48.942;9.256;2022-09-09T14:44:14;25.00;99.90
435;DHT22;204;48.942;9.256;2022-09-09T14:46:41;24.90;99.90
435;DHT22;204;48.942;9.256;2022-09-09T14:49:08;24.80;99.90
435;DHT22;204;48.942;9.256;2022-09-09T14:51:35;24.70;99.90
435;DHT22;204;48.942;9.256;2022-09-09T14:54:01;24.60;99.90
435;DHT22;204;48.942;9.256;2022-09-09T14:56:30;24.50;99.90
435;DHT22;204;48.942;9.256;2022-09-09T14:58:58;24.50;99.90
435;DHT22;204;48.942;9.256;2022-09-09T15:01:25;24.50;99.90
435;DHT22;204;48.942;9.256;2022-09-09T15:03:58;24.60;99.90
435;DHT22;204;48.942;9.256;2022-09-09T15:06:25;24.50;99.90
435;DHT22;204;48.942;9.256;2022-09-09T15:08:52;24.40;99.90
435;DHT22;204;48.942;9.256;2022-09-09T15:11:19;24.30;99.90
435;DHT22;204;48.942;9.256;2022-09-09T15:13:46;24.10;99.90
435;DHT22;204;48.942;9.256;2022-09-09T15:16:17;24.10;99.90
435;DHT22;204;48.942;9.256;2022-09-09T15:18:43;24.00;99.90
435;DHT22;204;48.942;9.256;2022-09-09T15:21:18;23.90;99.90
435;DHT22;204;48.942;9.256;2022-09-09T15:23:47;23.80;99.90
435;DHT22;204;48.942;9.256;2022-09-09T15:26:13;23.50;99.90
435;DHT22;204;48.942;9.256;2022-09-09T15:28:43;23.40;99.90
435;DHT22;204;48.942;9.256;2022-09-09T15:33:40;23.30;99.90
435;DHT22;204;48.942;9.256;2022-09-09T15:36:24;23.30;99.90
435;DHT22;204;48.942;9.256;2022-09-09T15:38:50;23.40;99.90
435;DHT22;204;48.942;9.256;2022-09-09T15:41:17;23.40;99.90
435;DHT22;204;48.942;9.256;2022-09-09T15:43:48;23.50;99.90
435;DHT22;204;48.942;9.256;2022-09-09T15:48:46;23.50;99.90
435;DHT22;204;48.942;9.256;2022-09-09T15:51:12;23.50;99.90
435;DHT22;204;48.942;9.256;2022-09-09T15:53:38;23.40;99.90
435;DHT22;204;48.942;9.256;2022-09-09T15:56:08;23.30;99.90
435;DHT22;204;48.942;9.256;2022-09-09T15:58:34;23.30;99.90
435;DHT22;204;48.942;9.256;2022-09-09T16:01:10;23.20;99.90
435;DHT22;204;48.942;9.256;2022-09-09T16:03:41;23.10;99.90
435;DHT22;204;48.942;9.256;2022-09-09T16:06:08;22.90;99.90
435;DHT22;204;48.942;9.256;2022-09-09T16:08:35;22.70;99.90
435;DHT22;204;48.942;9.256;2022-09-09T16:11:08;22.50;99.90
435;DHT22;204;48.942;9.256;2022-09-09T16:13:36;22.40;99.90
435;DHT22;204;48.942;9.256;2022-09-09T16:16:03;22.30;99.90
435;DHT22;204;48.942;9.256;2022-09-09T16:18:37;22.20;99.90
435;DHT22;204;48.942;9.256;2022-09-09T16:21:05;22.20;99.90
435;DHT22;204;48.942;9.256;2022-09-09T16:23:32;22.20;99.90
435;DHT22;204;48.942;9.256;2022-09-09T16:25:57;22.10;99.90
435;DHT22;204;48.942;9.256;2022-09-09T16:28:23;22.00;99.90
435;DHT22;204;48.942;9.256;2022-09-09T16:30:49;21.80;99.90
435;DHT22;204;48.942;9.256;2022-09-09T16:33:15;21.60;99.90
435;DHT22;204;48.942;9.256;2022-09-09T16:35:41;21.40;99.90
435;DHT22;204;48.942;9.256;2022-09-09T16:38:07;21.20;99.90
435;DHT22;204;48.942;9.256;2022-09-09T16:40:36;21.00;99.90
435;DHT22;204;48.942;9.256;2022-09-09T16:43:03;20.70;99.90
435;DHT22;204;48.942;9.256;2022-09-09T16:45:29;20.40;99.90
435;DHT22;204;48.942;9.256;2022-09-09T16:47:55;20.20;99.90
435;DHT22;204;48.942;9.256;2022-09-09T16:50:21;20.00;1.00
435;DHT22;204;48.942;9.256;2022-09-09T16:52:46;19.70;1.00
435;DHT22;204;48.942;9.256;2022-09-09T16:55:12;19.50;1.00
435;DHT22;204;48.942;9.256;2022-09-09T16:57:38;19.40;1.00
435;DHT22;204;48.942;9.256;2022-09-09T17:00:04;19.20;1.00
435;DHT22;204;48.942;9.256;2022-09-09T17:02:32;19.00;1.00
435;DHT22;204;48.942;9.256;2022-09-09T17:04:58;18.80;1.00
435;DHT22;204;48.942;9.256;2022-09-09T17:07:24;18.60;1.00
435;DHT22;204;48.942;9.256;2022-09-09T17:09:50;18.30;1.00
435;DHT22;204;48.942;9.256;2022-09-09T17:12:16;18.10;1.00
435;DHT22;204;48.942;9.256;2022-09-09T17:14:42;17.90;1.00
435;DHT22;204;48.942;9.256;2022-09-09T17:17:08;17.80;1.00
435;DHT22;204;48.942;9.256;2022-09-09T17:19:33;17.80;1.00
435;DHT22;204;48.942;9.256;2022-09-09T17:21:59;17.80;1.00
435;DHT22;204;48.942;9.256;2022-09-09T17:24:26;17.80;1.00
435;DHT22;204;48.942;9.256;2022-09-09T17:26:54;17.90;1.00
435;DHT22;204;48.942;9.256;2022-09-09T17:29:20;18.00;1.00
435;DHT22;204;48.942;9.256;2022-09-09T17:31:46;18.00;1.00
435;DHT22;204;48.942;9.256;2022-09-09T17:34:12;18.00;1.00
435;DHT22;204;48.942;9.256;2022-09-09T17:36:38;18.00;1.00
435;DHT22;204;48.942;9.256;2022-09-09T17:39:05;17.90;1.00
435;DHT22;204;48.942;9.256;2022-09-09T17:41:36;17.80;1.00
435;DHT22;204;48.942;9.256;2022-09-09T17:44:03;17.70;1.00
435;DHT22;204;48.942;9.256;2022-09-09T17:46:38;17.60;1.00
435;DHT22;204;48.942;9.256;2022-09-09T17:49:11;17.40;1.00
435;DHT22;204;48.942;9.256;2022-09-09T17:51:41;17.30;1.00
435;DHT22;204;48.942;9.256;2022-09-09T17:54:25;17.20;1.00
435;DHT22;204;48.942;9.256;2022-09-09T17:56:50;17.10;1.00
435;DHT22;204;48.942;9.256;2022-09-09T17:59:17;16.90;1.00
435;DHT22;204;48.942;9.256;2022-09-09T18:01:45;16.90;1.00
435;DHT22;204;48.942;9.256;2022-09-09T18:04:11;16.80;1.00
435;DHT22;204;48.942;9.256;2022-09-09T18:06:44;16.70;1.00
435;DHT22;204;48.942;9.256;2022-09-09T18:09:15;16.60;1.00
435;DHT22;204;48.942;9.256;2022-09-09T18:11:44;16.50;1.00
435;DHT22;204;48.942;9.256;2022-09-09T18:14:12;16.40;1.00
435;DHT22;204;48.942;9.256;2022-09-09T18:16:40;16.30;1.00
435;DHT22;204;48.942;9.256;2022-09-09T18:19:08;16.30;1.00
435;DHT22;204;48.942;9.256;2022-09-09T18:21:34;16.30;1.00
435;DHT22;204;48.942;9.256;2022-09-09T18:24:02;16.20;1.00
435;DHT22;204;48.942;9.256;2022-09-09T18:26:28;16.30;1.00
435;DHT22;204;48.942;9.256;2022-09-09T18:28:56;16.30;1.00
435;DHT22;204;48.942;9.256;2022-09-09T18:31:24;16.30;1.00
435;DHT22;204;48.942;9.256;2022-09-09T18:33:51;16.40;1.00
435;DHT22;204;48.942;9.256;2022-09-09T18:36:21;16.40;1.00
435;DHT22;204;48.942;9.256;2022-09-09T18:38:47;16.40;1.00
435;DHT22;204;48.942;9.256;2022-09-09T18:41:16;16.50;1.00
435;DHT22;204;48.942;9.256;2022-09-09T18:43:42;16.50;1.00
435;DHT22;204;48.942;9.256;2022-09-09T18:46:09;16.60;1.00
435;DHT22;204;48.942;9.256;2022-09-09T18:48:35;16.60;1.00
435;DHT22;204;48.942;9.256;2022-09-09T18:51:03;16.60;1.00
435;DHT22;204;48.942;9.256;2022-09-09T18:53:29;16.70;1.00
435;DHT22;204;48.942;9.256;2022-09-09T18:55:59;16.70;1.00
435;DHT22;204;48.942;9.256;2022-09-09T18:58:27;16.70;1.00
435;DHT22;204;48.942;9.256;2022-09-09T19:00:52;16.70;1.00
435;DHT22;204;48.942;9.256;2022-09-09T19:03:18;16.70;1.00
435;DHT22;204;48.942;9.256;2022-09-09T19:05:43;16.70;1.00
435;DHT22;204;48.942;9.256;2022-09-09T19:08:09;16.70;1.00
435;DHT22;204;48.942;9.256;2022-09-09T19:10:37;16.70;1.00